sensor_id;sensor_type;location;lat;lon;timestamp;P1;durP1;ratioP1;P2;durP2;ratioP2
75758;SDS011;64371;47.566;19.086;2023-02-22T00:01:17;4.95;;;3.00;;
75758;SDS011;64371;47.566;19.086;2023-02-22T00:04:50;6.93;;;3.22;;
75758;SDS011;64371;47.566;19.086;2023-02-22T00:07:58;6.85;;;3.75;;
75758;SDS011;64371;47.566;19.086;2023-02-22T00:11:08;5.70;;;3.20;;
75758;SDS011;64371;47.566;19.086;2023-02-22T00:14:10;5.27;;;3.40;;
75758;SDS011;64371;47.566;19.086;2023-02-22T00:17:15;5.38;;;3.30;;
75758;SDS011;64371;47.566;19.086;2023-02-22T00:20:26;6.00;;;3.58;;
75758;SDS011;64371;47.566;19.086;2023-02-22T00:23:31;5.00;;;3.35;;
75758;SDS011;64371;47.566;19.086;2023-02-22T00:26:36;5.93;;;3.75;;
75758;SDS011;64371;47.566;19.086;2023-02-22T00:29:44;6.03;;;3.40;;
75758;SDS011;64371;47.566;19.086;2023-02-22T00:32:55;4.65;;;3.30;;
75758;SDS011;64371;47.566;19.086;2023-02-22T00:36:03;5.80;;;3.35;;
75758;SDS011;64371;47.566;19.086;2023-02-22T00:39:10;6.50;;;3.47;;
75758;SDS011;64371;47.566;19.086;2023-02-22T00:42:16;5.38;;;3.25;;
75758;SDS011;64371;47.566;19.086;2023-02-22T00:45:20;7.17;;;3.80;;
75758;SDS011;64371;47.566;19.086;2023-02-22T00:48:27;7.05;;;3.63;;
75758;SDS011;64371;47.566;19.086;2023-02-22T00:51:44;6.80;;;4.00;;
75758;SDS011;64371;47.566;19.086;2023-02-22T00:55:00;5.45;;;3.33;;
75758;SDS011;64371;47.566;19.086;2023-02-22T00:58:04;5.82;;;3.45;;
75758;SDS011;64371;47.566;19.086;2023-02-22T01:01:09;6.23;;;3.47;;
75758;SDS011;64371;47.566;19.086;2023-02-22T01:04:13;5.80;;;3.50;;
75758;SDS011;64371;47.566;19.086;2023-02-22T01:07:19;5.32;;;3.65;;
75758;SDS011;64371;47.566;19.086;2023-02-22T01:10:32;8.30;;;3.50;;
75758;SDS011;64371;47.566;19.086;2023-02-22T01:13:34;6.50;;;3.20;;
75758;SDS011;64371;47.566;19.086;2023-02-22T01:16:37;5.87;;;3.23;;
75758;SDS011;64371;47.566;19.086;2023-02-22T01:19:41;6.05;;;3.55;;
75758;SDS011;64371;47.566;19.086;2023-02-22T01:22:56;7.28;;;3.25;;
75758;SDS011;64371;47.566;19.086;2023-02-22T01:26:08;7.88;;;4.03;;
75758;SDS011;64371;47.566;19.086;2023-02-22T01:29:21;7.40;;;4.00;;
75758;SDS011;64371;47.566;19.086;2023-02-22T01:32:26;6.20;;;3.83;;
75758;SDS011;64371;47.566;19.086;2023-02-22T01:35:38;7.55;;;3.95;;
75758;SDS011;64371;47.566;19.086;2023-02-22T01:38:47;6.50;;;3.72;;
75758;SDS011;64371;47.566;19.086;2023-02-22T01:41:51;6.05;;;3.58;;
75758;SDS011;64371;47.566;19.086;2023-02-22T01:48:44;5.37;;;3.63;;
75758;SDS011;64371;47.566;19.086;2023-02-22T01:51:55;8.82;;;3.88;;
75758;SDS011;64371;47.566;19.086;2023-02-22T01:55:11;5.00;;;3.08;;
75758;SDS011;64371;47.566;19.086;2023-02-22T01:58:29;5.63;;;3.42;;
75758;SDS011;64371;47.566;19.086;2023-02-22T02:01:41;6.85;;;4.00;;
75758;SDS011;64371;47.566;19.086;2023-02-22T02:04:54;6.00;;;3.70;;
75758;SDS011;64371;47.566;19.086;2023-02-22T02:08:03;6.55;;;3.55;;
75758;SDS011;64371;47.566;19.086;2023-02-22T02:11:25;6.57;;;3.85;;
75758;SDS011;64371;47.566;19.086;2023-02-22T02:14:35;7.05;;;3.83;;
75758;SDS011;64371;47.566;19.086;2023-02-22T02:17:44;6.68;;;3.67;;
75758;SDS011;64371;47.566;19.086;2023-02-22T02:41:33;5.90;;;3.35;;
75758;SDS011;64371;47.566;19.086;2023-02-22T02:44:45;6.80;;;3.97;;
75758;SDS011;64371;47.566;19.086;2023-02-22T02:47:53;6.38;;;3.80;;
75758;SDS011;64371;47.566;19.086;2023-02-22T02:51:10;6.90;;;4.10;;
75758;SDS011;64371;47.566;19.086;2023-02-22T02:54:28;5.67;;;3.60;;
75758;SDS011;64371;47.566;19.086;2023-02-22T02:57:31;5.85;;;3.92;;
75758;SDS011;64371;47.566;19.086;2023-02-22T03:00:36;6.80;;;3.85;;
75758;SDS011;64371;47.566;19.086;2023-02-22T03:07:44;6.50;;;3.95;;
75758;SDS011;64371;47.566;19.086;2023-02-22T03:14:24;5.85;;;3.72;;
75758;SDS011;64371;47.566;19.086;2023-02-22T03:17:56;8.15;;;4.13;;
75758;SDS011;64371;47.566;19.086;2023-02-22T03:24:36;6.68;;;3.78;;
75758;SDS011;64371;47.566;19.086;2023-02-22T03:27:46;7.00;;;4.27;;
75758;SDS011;64371;47.566;19.086;2023-02-22T03:30:57;7.88;;;4.00;;
75758;SDS011;64371;47.566;19.086;2023-02-22T03:34:25;7.00;;;4.07;;
75758;SDS011;64371;47.566;19.086;2023-02-22T03:37:34;7.63;;;4.28;;
75758;SDS011;64371;47.566;19.086;2023-02-22T03:40:44;7.28;;;4.43;;
75758;SDS011;64371;47.566;19.086;2023-02-22T03:44:00;7.83;;;4.13;;
75758;SDS011;64371;47.566;19.086;2023-02-22T03:47:20;9.52;;;4.40;;
75758;SDS011;64371;47.566;19.086;2023-02-22T03:50:42;9.27;;;4.43;;
75758;SDS011;64371;47.566;19.086;2023-02-22T03:53:48;6.20;;;4.05;;
75758;SDS011;64371;47.566;19.086;2023-02-22T03:56:56;6.88;;;4.30;;
75758;SDS011;64371;47.566;19.086;2023-02-22T04:00:09;8.07;;;4.17;;
75758;SDS011;64371;47.566;19.086;2023-02-22T04:03:14;6.90;;;4.43;;
75758;SDS011;64371;47.566;19.086;2023-02-22T04:06:20;7.90;;;4.32;;
75758;SDS011;64371;47.566;19.086;2023-02-22T04:09:36;7.80;;;4.63;;
75758;SDS011;64371;47.566;19.086;2023-02-22T04:12:49;7.53;;;4.30;;
75758;SDS011;64371;47.566;19.086;2023-02-22T04:15:57;8.13;;;4.80;;
75758;SDS011;64371;47.566;19.086;2023-02-22T04:19:05;8.38;;;5.53;;
75758;SDS011;64371;47.566;19.086;2023-02-22T04:22:09;9.38;;;4.60;;
75758;SDS011;64371;47.566;19.086;2023-02-22T04:25:22;7.35;;;4.75;;
75758;SDS011;64371;47.566;19.086;2023-02-22T04:28:30;8.82;;;5.70;;
75758;SDS011;64371;47.566;19.086;2023-02-22T04:31:49;7.37;;;4.73;;
75758;SDS011;64371;47.566;19.086;2023-02-22T04:34:54;8.60;;;4.80;;
75758;SDS011;64371;47.566;19.086;2023-02-22T04:38:00;7.65;;;5.07;;
75758;SDS011;64371;47.566;19.086;2023-02-22T04:41:06;8.27;;;5.10;;
75758;SDS011;64371;47.566;19.086;2023-02-22T04:44:12;10.02;;;5.53;;
75758;SDS011;64371;47.566;19.086;2023-02-22T04:47:27;11.97;;;5.33;;
75758;SDS011;64371;47.566;19.086;2023-02-22T04:50:29;9.27;;;5.65;;
75758;SDS011;64371;47.566;19.086;2023-02-22T04:53:36;8.48;;;5.28;;
75758;SDS011;64371;47.566;19.086;2023-02-22T04:56:54;8.23;;;5.20;;
75758;SDS011;64371;47.566;19.086;2023-02-22T05:00:00;11.98;;;7.20;;
75758;SDS011;64371;47.566;19.086;2023-02-22T05:03:09;13.53;;;5.73;;
75758;SDS011;64371;47.566;19.086;2023-02-22T05:06:18;9.57;;;5.10;;
75758;SDS011;64371;47.566;19.086;2023-02-22T05:09:31;9.63;;;5.80;;
75758;SDS011;64371;47.566;19.086;2023-02-22T05:12:44;12.80;;;5.88;;
75758;SDS011;64371;47.566;19.086;2023-02-22T05:16:09;12.90;;;7.30;;
75758;SDS011;64371;47.566;19.086;2023-02-22T05:19:12;13.23;;;6.87;;
75758;SDS011;64371;47.566;19.086;2023-02-22T05:22:17;32.55;;;15.30;;
75758;SDS011;64371;47.566;19.086;2023-02-22T05:25:22;23.95;;;12.05;;
75758;SDS011;64371;47.566;19.086;2023-02-22T05:28:26;22.60;;;11.75;;
75758;SDS011;64371;47.566;19.086;2023-02-22T05:31:30;15.05;;;8.48;;
75758;SDS011;64371;47.566;19.086;2023-02-22T05:34:35;12.97;;;7.17;;
75758;SDS011;64371;47.566;19.086;2023-02-22T05:38:01;11.68;;;6.55;;
75758;SDS011;64371;47.566;19.086;2023-02-22T05:41:11;12.07;;;6.18;;
75758;SDS011;64371;47.566;19.086;2023-02-22T05:44:14;10.73;;;6.10;;
75758;SDS011;64371;47.566;19.086;2023-02-22T05:47:29;9.68;;;5.88;;
75758;SDS011;64371;47.566;19.086;2023-02-22T05:50:37;11.47;;;6.10;;
75758;SDS011;64371;47.566;19.086;2023-02-22T05:53:44;10.80;;;6.25;;
75758;SDS011;64371;47.566;19.086;2023-02-22T05:57:03;10.27;;;5.55;;
75758;SDS011;64371;47.566;19.086;2023-02-22T06:00:18;10.82;;;5.68;;
75758;SDS011;64371;47.566;19.086;2023-02-22T06:03:28;10.52;;;5.80;;
75758;SDS011;64371;47.566;19.086;2023-02-22T06:06:39;11.23;;;6.80;;
75758;SDS011;64371;47.566;19.086;2023-02-22T06:09:43;12.05;;;7.18;;
75758;SDS011;64371;47.566;19.086;2023-02-22T06:12:54;10.45;;;6.47;;
75758;SDS011;64371;47.566;19.086;2023-02-22T06:16:04;11.10;;;5.95;;
75758;SDS011;64371;47.566;19.086;2023-02-22T06:19:16;10.07;;;5.97;;
75758;SDS011;64371;47.566;19.086;2023-02-22T06:22:22;10.83;;;5.87;;
75758;SDS011;64371;47.566;19.086;2023-02-22T06:25:28;8.80;;;5.63;;
75758;SDS011;64371;47.566;19.086;2023-02-22T06:28:38;9.48;;;5.70;;
75758;SDS011;64371;47.566;19.086;2023-02-22T06:31:45;8.75;;;5.78;;
75758;SDS011;64371;47.566;19.086;2023-02-22T06:34:49;9.15;;;5.80;;
75758;SDS011;64371;47.566;19.086;2023-02-22T06:37:56;12.40;;;6.77;;
75758;SDS011;64371;47.566;19.086;2023-02-22T06:41:04;12.88;;;6.95;;
75758;SDS011;64371;47.566;19.086;2023-02-22T06:44:11;11.18;;;6.82;;
75758;SDS011;64371;47.566;19.086;2023-02-22T06:47:15;12.23;;;5.68;;
75758;SDS011;64371;47.566;19.086;2023-02-22T06:50:27;9.93;;;5.93;;
75758;SDS011;64371;47.566;19.086;2023-02-22T06:53:36;9.20;;;6.10;;
75758;SDS011;64371;47.566;19.086;2023-02-22T06:56:46;11.13;;;6.00;;
75758;SDS011;64371;47.566;19.086;2023-02-22T07:00:03;9.80;;;5.80;;
75758;SDS011;64371;47.566;19.086;2023-02-22T07:03:12;9.50;;;5.53;;
75758;SDS011;64371;47.566;19.086;2023-02-22T07:06:27;9.05;;;5.97;;
75758;SDS011;64371;47.566;19.086;2023-02-22T07:09:38;7.87;;;5.13;;
75758;SDS011;64371;47.566;19.086;2023-02-22T07:12:46;9.48;;;6.15;;
75758;SDS011;64371;47.566;19.086;2023-02-22T07:16:00;10.88;;;6.03;;
75758;SDS011;64371;47.566;19.086;2023-02-22T07:19:10;11.93;;;6.28;;
75758;SDS011;64371;47.566;19.086;2023-02-22T07:22:19;11.27;;;5.90;;
75758;SDS011;64371;47.566;19.086;2023-02-22T07:25:27;9.67;;;5.87;;
75758;SDS011;64371;47.566;19.086;2023-02-22T07:28:39;12.50;;;6.20;;
75758;SDS011;64371;47.566;19.086;2023-02-22T07:31:47;12.40;;;7.03;;
75758;SDS011;64371;47.566;19.086;2023-02-22T07:34:51;11.57;;;6.97;;
75758;SDS011;64371;47.566;19.086;2023-02-22T07:37:59;11.77;;;6.50;;
75758;SDS011;64371;47.566;19.086;2023-02-22T07:41:29;11.17;;;6.63;;
75758;SDS011;64371;47.566;19.086;2023-02-22T07:44:48;11.18;;;6.05;;
75758;SDS011;64371;47.566;19.086;2023-02-22T07:47:54;10.75;;;6.63;;
75758;SDS011;64371;47.566;19.086;2023-02-22T07:50:56;10.90;;;6.75;;
75758;SDS011;64371;47.566;19.086;2023-02-22T07:54:08;12.50;;;7.10;;
75758;SDS011;64371;47.566;19.086;2023-02-22T07:57:16;12.70;;;7.77;;
75758;SDS011;64371;47.566;19.086;2023-02-22T08:03:37;15.23;;;8.15;;
75758;SDS011;64371;47.566;19.086;2023-02-22T08:06:39;10.07;;;7.30;;
75758;SDS011;64371;47.566;19.086;2023-02-22T08:09:53;8.48;;;6.20;;
75758;SDS011;64371;47.566;19.086;2023-02-22T08:13:06;9.43;;;6.13;;
75758;SDS011;64371;47.566;19.086;2023-02-22T08:16:15;10.48;;;6.45;;
75758;SDS011;64371;47.566;19.086;2023-02-22T08:19:27;8.98;;;6.53;;
75758;SDS011;64371;47.566;19.086;2023-02-22T08:22:44;10.13;;;6.97;;
75758;SDS011;64371;47.566;19.086;2023-02-22T08:25:49;11.15;;;6.63;;
75758;SDS011;64371;47.566;19.086;2023-02-22T08:28:55;10.93;;;6.77;;
75758;SDS011;64371;47.566;19.086;2023-02-22T08:32:10;10.80;;;6.22;;
75758;SDS011;64371;47.566;19.086;2023-02-22T08:35:20;9.50;;;6.32;;
75758;SDS011;64371;47.566;19.086;2023-02-22T08:38:42;8.57;;;6.00;;
75758;SDS011;64371;47.566;19.086;2023-02-22T08:41:51;9.18;;;6.88;;
75758;SDS011;64371;47.566;19.086;2023-02-22T08:45:03;8.73;;;6.40;;
75758;SDS011;64371;47.566;19.086;2023-02-22T08:48:13;9.80;;;6.53;;
75758;SDS011;64371;47.566;19.086;2023-02-22T08:51:16;8.30;;;5.97;;
75758;SDS011;64371;47.566;19.086;2023-02-22T08:54:23;9.05;;;6.03;;
75758;SDS011;64371;47.566;19.086;2023-02-22T08:57:32;9.68;;;6.65;;
75758;SDS011;64371;47.566;19.086;2023-02-22T09:00:50;15.77;;;7.63;;
75758;SDS011;64371;47.566;19.086;2023-02-22T09:03:55;9.68;;;6.20;;
75758;SDS011;64371;47.566;19.086;2023-02-22T09:07:02;10.25;;;6.68;;
75758;SDS011;64371;47.566;19.086;2023-02-22T09:10:13;9.07;;;6.30;;
75758;SDS011;64371;47.566;19.086;2023-02-22T09:13:29;9.73;;;6.00;;
75758;SDS011;64371;47.566;19.086;2023-02-22T09:16:46;10.13;;;5.97;;
75758;SDS011;64371;47.566;19.086;2023-02-22T09:20:00;9.88;;;5.95;;
75758;SDS011;64371;47.566;19.086;2023-02-22T09:23:10;14.57;;;7.22;;
75758;SDS011;64371;47.566;19.086;2023-02-22T09:26:24;12.32;;;7.63;;
75758;SDS011;64371;47.566;19.086;2023-02-22T09:29:31;12.88;;;7.55;;
75758;SDS011;64371;47.566;19.086;2023-02-22T09:32:34;13.03;;;8.00;;
75758;SDS011;64371;47.566;19.086;2023-02-22T09:35:48;10.70;;;7.10;;
75758;SDS011;64371;47.566;19.086;2023-02-22T09:38:54;13.05;;;7.72;;
75758;SDS011;64371;47.566;19.086;2023-02-22T09:52:25;9.40;;;5.82;;
75758;SDS011;64371;47.566;19.086;2023-02-22T09:55:46;9.48;;;6.10;;
75758;SDS011;64371;47.566;19.086;2023-02-22T09:58:59;7.97;;;4.85;;
75758;SDS011;64371;47.566;19.086;2023-02-22T10:02:18;10.90;;;6.20;;
75758;SDS011;64371;47.566;19.086;2023-02-22T10:05:33;8.63;;;6.27;;
75758;SDS011;64371;47.566;19.086;2023-02-22T10:08:41;11.75;;;7.05;;
75758;SDS011;64371;47.566;19.086;2023-02-22T10:29:31;13.05;;;8.43;;
75758;SDS011;64371;47.566;19.086;2023-02-22T10:32:47;14.80;;;8.82;;
75758;SDS011;64371;47.566;19.086;2023-02-22T10:36:13;11.88;;;7.35;;
75758;SDS011;64371;47.566;19.086;2023-02-22T10:39:33;13.60;;;9.53;;
75758;SDS011;64371;47.566;19.086;2023-02-22T10:42:39;13.70;;;8.35;;
75758;SDS011;64371;47.566;19.086;2023-02-22T10:45:52;14.95;;;8.88;;
75758;SDS011;64371;47.566;19.086;2023-02-22T10:49:06;14.40;;;8.85;;
75758;SDS011;64371;47.566;19.086;2023-02-22T10:52:22;11.80;;;8.18;;
75758;SDS011;64371;47.566;19.086;2023-02-22T10:55:31;11.83;;;8.00;;
75758;SDS011;64371;47.566;19.086;2023-02-22T11:02:01;14.10;;;7.28;;
75758;SDS011;64371;47.566;19.086;2023-02-22T11:05:36;11.07;;;7.97;;
75758;SDS011;64371;47.566;19.086;2023-02-22T11:08:47;13.73;;;7.80;;
75758;SDS011;64371;47.566;19.086;2023-02-22T11:12:07;13.33;;;8.83;;
75758;SDS011;64371;47.566;19.086;2023-02-22T11:15:27;13.10;;;8.02;;
75758;SDS011;64371;47.566;19.086;2023-02-22T11:18:32;12.10;;;8.57;;
75758;SDS011;64371;47.566;19.086;2023-02-22T11:21:41;16.95;;;9.75;;
75758;SDS011;64371;47.566;19.086;2023-02-22T11:25:16;17.15;;;10.85;;
75758;SDS011;64371;47.566;19.086;2023-02-22T11:28:27;17.17;;;10.13;;
75758;SDS011;64371;47.566;19.086;2023-02-22T11:31:43;14.38;;;8.38;;
75758;SDS011;64371;47.566;19.086;2023-02-22T11:34:53;13.77;;;9.00;;
75758;SDS011;64371;47.566;19.086;2023-02-22T11:41:34;13.00;;;7.65;;
75758;SDS011;64371;47.566;19.086;2023-02-22T11:44:38;15.63;;;9.07;;
75758;SDS011;64371;47.566;19.086;2023-02-22T11:47:53;13.88;;;8.68;;
75758;SDS011;64371;47.566;19.086;2023-02-22T11:51:19;11.80;;;7.07;;
75758;SDS011;64371;47.566;19.086;2023-02-22T11:58:21;15.40;;;8.43;;
75758;SDS011;64371;47.566;19.086;2023-02-22T12:01:30;10.43;;;6.17;;
75758;SDS011;64371;47.566;19.086;2023-02-22T12:12:11;12.23;;;7.75;;
75758;SDS011;64371;47.566;19.086;2023-02-22T12:15:30;14.38;;;7.05;;
75758;SDS011;64371;47.566;19.086;2023-02-22T12:25:33;18.15;;;10.30;;
75758;SDS011;64371;47.566;19.086;2023-02-22T12:32:05;16.63;;;9.00;;
75758;SDS011;64371;47.566;19.086;2023-02-22T12:38:39;11.95;;;6.03;;
75758;SDS011;64371;47.566;19.086;2023-02-22T12:41:50;17.35;;;8.85;;
75758;SDS011;64371;47.566;19.086;2023-02-22T12:45:00;15.88;;;9.52;;
75758;SDS011;64371;47.566;19.086;2023-02-22T12:51:41;14.27;;;7.63;;
75758;SDS011;64371;47.566;19.086;2023-02-22T12:55:28;14.18;;;9.63;;
75758;SDS011;64371;47.566;19.086;2023-02-22T12:58:52;12.07;;;7.15;;
75758;SDS011;64371;47.566;19.086;2023-02-22T13:05:24;11.98;;;6.30;;
75758;SDS011;64371;47.566;19.086;2023-02-22T13:09:22;18.47;;;9.07;;
75758;SDS011;64371;47.566;19.086;2023-02-22T13:12:23;14.90;;;8.68;;
75758;SDS011;64371;47.566;19.086;2023-02-22T13:23:00;19.25;;;10.30;;
75758;SDS011;64371;47.566;19.086;2023-02-22T13:29:34;16.27;;;10.68;;
75758;SDS011;64371;47.566;19.086;2023-02-22T13:53:48;14.68;;;9.90;;
75758;SDS011;64371;47.566;19.086;2023-02-22T13:56:56;16.38;;;8.82;;
75758;SDS011;64371;47.566;19.086;2023-02-22T14:06:43;19.08;;;10.95;;
75758;SDS011;64371;47.566;19.086;2023-02-22T14:09:47;19.13;;;8.73;;
75758;SDS011;64371;47.566;19.086;2023-02-22T14:13:05;16.25;;;8.35;;
75758;SDS011;64371;47.566;19.086;2023-02-22T14:16:25;14.37;;;7.13;;
75758;SDS011;64371;47.566;19.086;2023-02-22T14:19:40;15.77;;;7.75;;
75758;SDS011;64371;47.566;19.086;2023-02-22T14:22:47;16.63;;;9.25;;
75758;SDS011;64371;47.566;19.086;2023-02-22T14:25:53;20.77;;;10.27;;
75758;SDS011;64371;47.566;19.086;2023-02-22T14:32:19;14.73;;;9.37;;
75758;SDS011;64371;47.566;19.086;2023-02-22T14:35:49;17.92;;;10.13;;
75758;SDS011;64371;47.566;19.086;2023-02-22T14:38:55;14.60;;;7.78;;
75758;SDS011;64371;47.566;19.086;2023-02-22T14:42:12;12.73;;;5.97;;
75758;SDS011;64371;47.566;19.086;2023-02-22T14:45:34;14.30;;;9.00;;
75758;SDS011;64371;47.566;19.086;2023-02-22T14:48:44;16.27;;;8.33;;
75758;SDS011;64371;47.566;19.086;2023-02-22T14:51:59;15.77;;;9.15;;
75758;SDS011;64371;47.566;19.086;2023-02-22T14:58:45;17.02;;;10.30;;
75758;SDS011;64371;47.566;19.086;2023-02-22T15:02:04;15.82;;;9.73;;
75758;SDS011;64371;47.566;19.086;2023-02-22T15:05:13;11.70;;;7.50;;
75758;SDS011;64371;47.566;19.086;2023-02-22T15:08:20;12.45;;;6.97;;
75758;SDS011;64371;47.566;19.086;2023-02-22T15:11:46;13.35;;;7.22;;
75758;SDS011;64371;47.566;19.086;2023-02-22T15:15:09;19.88;;;7.80;;
75758;SDS011;64371;47.566;19.086;2023-02-22T15:18:39;11.98;;;7.55;;
75758;SDS011;64371;47.566;19.086;2023-02-22T15:21:54;14.00;;;7.27;;
75758;SDS011;64371;47.566;19.086;2023-02-22T15:25:08;11.50;;;6.57;;
75758;SDS011;64371;47.566;19.086;2023-02-22T15:28:31;15.10;;;7.43;;
75758;SDS011;64371;47.566;19.086;2023-02-22T15:31:52;13.43;;;7.13;;
75758;SDS011;64371;47.566;19.086;2023-02-22T15:38:37;14.73;;;7.20;;
75758;SDS011;64371;47.566;19.086;2023-02-22T15:41:42;14.88;;;6.90;;
75758;SDS011;64371;47.566;19.086;2023-02-22T15:44:48;25.20;;;10.18;;
75758;SDS011;64371;47.566;19.086;2023-02-22T15:48:00;27.48;;;11.00;;
75758;SDS011;64371;47.566;19.086;2023-02-22T15:51:10;21.13;;;8.73;;
75758;SDS011;64371;47.566;19.086;2023-02-22T15:54:28;20.23;;;8.33;;
75758;SDS011;64371;47.566;19.086;2023-02-22T15:57:33;14.43;;;8.18;;
75758;SDS011;64371;47.566;19.086;2023-02-22T16:00:43;33.60;;;18.85;;
75758;SDS011;64371;47.566;19.086;2023-02-22T16:04:04;16.35;;;8.88;;
75758;SDS011;64371;47.566;19.086;2023-02-22T16:07:07;11.77;;;6.80;;
75758;SDS011;64371;47.566;19.086;2023-02-22T16:10:23;11.20;;;6.67;;
75758;SDS011;64371;47.566;19.086;2023-02-22T16:13:54;15.35;;;7.57;;
75758;SDS011;64371;47.566;19.086;2023-02-22T16:20:32;15.43;;;8.00;;
75758;SDS011;64371;47.566;19.086;2023-02-22T16:23:46;17.73;;;7.72;;
75758;SDS011;64371;47.566;19.086;2023-02-22T16:27:04;17.80;;;8.33;;
75758;SDS011;64371;47.566;19.086;2023-02-22T16:30:30;16.42;;;8.93;;
75758;SDS011;64371;47.566;19.086;2023-02-22T16:34:06;20.15;;;9.52;;
75758;SDS011;64371;47.566;19.086;2023-02-22T16:37:21;14.05;;;8.00;;
75758;SDS011;64371;47.566;19.086;2023-02-22T16:40:31;20.60;;;10.18;;
75758;SDS011;64371;47.566;19.086;2023-02-22T16:43:46;18.00;;;10.40;;
75758;SDS011;64371;47.566;19.086;2023-02-22T16:46:57;17.85;;;10.45;;
75758;SDS011;64371;47.566;19.086;2023-02-22T16:50:04;20.45;;;10.18;;
75758;SDS011;64371;47.566;19.086;2023-02-22T16:53:10;18.58;;;9.80;;
75758;SDS011;64371;47.566;19.086;2023-02-22T16:56:15;17.00;;;9.45;;
75758;SDS011;64371;47.566;19.086;2023-02-22T16:59:36;20.37;;;9.60;;
75758;SDS011;64371;47.566;19.086;2023-02-22T17:02:40;16.33;;;8.50;;
75758;SDS011;64371;47.566;19.086;2023-02-22T17:06:04;14.95;;;8.05;;
75758;SDS011;64371;47.566;19.086;2023-02-22T17:09:11;16.35;;;7.95;;
75758;SDS011;64371;47.566;19.086;2023-02-22T17:12:20;15.07;;;7.90;;
75758;SDS011;64371;47.566;19.086;2023-02-22T17:15:26;13.80;;;7.53;;
75758;SDS011;64371;47.566;19.086;2023-02-22T17:18:38;16.25;;;8.00;;
75758;SDS011;64371;47.566;19.086;2023-02-22T17:21:51;16.42;;;8.32;;
75758;SDS011;64371;47.566;19.086;2023-02-22T17:25:04;22.23;;;8.38;;
75758;SDS011;64371;47.566;19.086;2023-02-22T17:28:23;13.23;;;7.05;;
75758;SDS011;64371;47.566;19.086;2023-02-22T17:31:28;13.30;;;6.60;;
75758;SDS011;64371;47.566;19.086;2023-02-22T17:34:34;13.25;;;6.22;;
75758;SDS011;64371;47.566;19.086;2023-02-22T17:37:43;13.82;;;7.20;;
75758;SDS011;64371;47.566;19.086;2023-02-22T17:41:15;15.57;;;6.80;;
75758;SDS011;64371;47.566;19.086;2023-02-22T17:44:28;15.90;;;7.32;;
75758;SDS011;64371;47.566;19.086;2023-02-22T17:47:33;17.63;;;7.63;;
75758;SDS011;64371;47.566;19.086;2023-02-22T17:50:47;20.40;;;9.40;;
75758;SDS011;64371;47.566;19.086;2023-02-22T17:53:52;15.65;;;8.82;;
75758;SDS011;64371;47.566;19.086;2023-02-22T17:57:02;19.13;;;9.45;;
75758;SDS011;64371;47.566;19.086;2023-02-22T18:00:07;17.50;;;9.52;;
75758;SDS011;64371;47.566;19.086;2023-02-22T18:03:19;16.13;;;8.07;;
75758;SDS011;64371;47.566;19.086;2023-02-22T18:06:29;15.88;;;8.38;;
75758;SDS011;64371;47.566;19.086;2023-02-22T18:09:37;17.10;;;8.63;;
75758;SDS011;64371;47.566;19.086;2023-02-22T18:12:42;17.25;;;8.38;;
75758;SDS011;64371;47.566;19.086;2023-02-22T18:15:45;26.10;;;10.40;;
75758;SDS011;64371;47.566;19.086;2023-02-22T18:18:48;19.57;;;8.97;;
75758;SDS011;64371;47.566;19.086;2023-02-22T18:21:53;20.02;;;9.80;;
75758;SDS011;64371;47.566;19.086;2023-02-22T18:25:02;21.25;;;9.35;;
75758;SDS011;64371;47.566;19.086;2023-02-22T18:28:09;21.98;;;8.30;;
75758;SDS011;64371;47.566;19.086;2023-02-22T18:31:13;17.25;;;7.18;;
75758;SDS011;64371;47.566;19.086;2023-02-22T18:34:22;18.53;;;6.60;;
75758;SDS011;64371;47.566;19.086;2023-02-22T18:37:31;15.07;;;6.07;;
75758;SDS011;64371;47.566;19.086;2023-02-22T18:40:36;17.55;;;6.78;;
75758;SDS011;64371;47.566;19.086;2023-02-22T18:43:43;15.68;;;6.75;;
75758;SDS011;64371;47.566;19.086;2023-02-22T18:46:59;16.42;;;7.40;;
75758;SDS011;64371;47.566;19.086;2023-02-22T18:50:09;14.93;;;6.83;;
75758;SDS011;64371;47.566;19.086;2023-02-22T18:53:30;19.40;;;8.50;;
75758;SDS011;64371;47.566;19.086;2023-02-22T18:56:39;15.95;;;8.05;;
75758;SDS011;64371;47.566;19.086;2023-02-22T18:59:41;20.05;;;10.05;;
75758;SDS011;64371;47.566;19.086;2023-02-22T19:02:50;21.67;;;9.18;;
75758;SDS011;64371;47.566;19.086;2023-02-22T19:05:59;20.80;;;10.13;;
75758;SDS011;64371;47.566;19.086;2023-02-22T19:09:04;22.55;;;9.75;;
75758;SDS011;64371;47.566;19.086;2023-02-22T19:12:15;20.02;;;9.80;;
75758;SDS011;64371;47.566;19.086;2023-02-22T19:15:18;25.42;;;12.55;;
75758;SDS011;64371;47.566;19.086;2023-02-22T19:18:29;25.23;;;13.40;;
75758;SDS011;64371;47.566;19.086;2023-02-22T19:21:36;24.43;;;12.47;;
75758;SDS011;64371;47.566;19.086;2023-02-22T19:24:55;27.40;;;13.02;;
75758;SDS011;64371;47.566;19.086;2023-02-22T19:28:00;22.90;;;12.23;;
75758;SDS011;64371;47.566;19.086;2023-02-22T19:31:11;21.13;;;10.88;;
75758;SDS011;64371;47.566;19.086;2023-02-22T19:34:21;30.77;;;12.18;;
75758;SDS011;64371;47.566;19.086;2023-02-22T19:37:25;28.37;;;11.93;;
75758;SDS011;64371;47.566;19.086;2023-02-22T19:40:29;30.10;;;12.77;;
75758;SDS011;64371;47.566;19.086;2023-02-22T19:43:55;25.25;;;11.30;;
75758;SDS011;64371;47.566;19.086;2023-02-22T19:47:01;24.58;;;10.50;;
75758;SDS011;64371;47.566;19.086;2023-02-22T19:50:24;24.02;;;10.68;;
75758;SDS011;64371;47.566;19.086;2023-02-22T19:53:32;21.77;;;10.10;;
75758;SDS011;64371;47.566;19.086;2023-02-22T19:56:52;21.58;;;9.90;;
75758;SDS011;64371;47.566;19.086;2023-02-22T20:00:13;21.02;;;10.30;;
75758;SDS011;64371;47.566;19.086;2023-02-22T20:03:24;18.85;;;10.02;;
75758;SDS011;64371;47.566;19.086;2023-02-22T20:06:35;21.23;;;9.68;;
75758;SDS011;64371;47.566;19.086;2023-02-22T20:09:46;17.67;;;10.00;;
75758;SDS011;64371;47.566;19.086;2023-02-22T20:12:52;20.33;;;9.95;;
75758;SDS011;64371;47.566;19.086;2023-02-22T20:16:02;21.98;;;10.25;;
75758;SDS011;64371;47.566;19.086;2023-02-22T20:19:07;22.17;;;9.70;;
75758;SDS011;64371;47.566;19.086;2023-02-22T20:22:15;20.58;;;9.80;;
75758;SDS011;64371;47.566;19.086;2023-02-22T20:25:22;23.60;;;9.73;;
75758;SDS011;64371;47.566;19.086;2023-02-22T20:28:30;23.90;;;10.15;;
75758;SDS011;64371;47.566;19.086;2023-02-22T20:31:42;22.33;;;10.65;;
75758;SDS011;64371;47.566;19.086;2023-02-22T20:34:52;25.08;;;10.48;;
75758;SDS011;64371;47.566;19.086;2023-02-22T20:38:03;24.20;;;10.65;;
75758;SDS011;64371;47.566;19.086;2023-02-22T20:41:20;23.40;;;9.63;;
75758;SDS011;64371;47.566;19.086;2023-02-22T20:44:33;23.25;;;9.90;;
75758;SDS011;64371;47.566;19.086;2023-02-22T20:47:39;25.58;;;9.90;;
75758;SDS011;64371;47.566;19.086;2023-02-22T20:50:51;23.95;;;10.07;;
75758;SDS011;64371;47.566;19.086;2023-02-22T20:53:57;21.85;;;9.70;;
75758;SDS011;64371;47.566;19.086;2023-02-22T20:57:00;20.83;;;9.07;;
75758;SDS011;64371;47.566;19.086;2023-02-22T21:00:13;22.17;;;9.55;;
75758;SDS011;64371;47.566;19.086;2023-02-22T21:03:24;23.58;;;10.48;;
75758;SDS011;64371;47.566;19.086;2023-02-22T21:06:28;21.02;;;10.18;;
75758;SDS011;64371;47.566;19.086;2023-02-22T21:09:42;24.42;;;9.40;;
75758;SDS011;64371;47.566;19.086;2023-02-22T21:13:13;21.73;;;9.20;;
75758;SDS011;64371;47.566;19.086;2023-02-22T21:16:28;23.17;;;9.57;;
75758;SDS011;64371;47.566;19.086;2023-02-22T21:19:39;19.00;;;8.82;;